Terminal Aerodrome Forecast
Issued by NWS Cleveland, OH

Home | Current Version | Previous Version | Graphics & Text | Print | Product List | Glossary On
Versions: 1 2 3 4 5 6 7 8 9 10 11 12 13 14
000
FTUS41 KCLE 011724
TAFYNG
TAF
KYNG 011724Z 0118/0218 25014G20KT P6SM VCSH BKN025 OVC040
     FM020300 25011KT P6SM VCSH OVC025
     FM020900 25011KT P6SM VCSH BKN015 OVC025=

USA.gov is the U.S. government's official web portal to all federal, state and local government web resources and services.